sensor_id;sensor_type;location;lat;lon;timestamp;pressure;altitude;pressure_sealevel;temperature;humidity
39891;BME280;25564;53.312;9.790;2023-03-23T00:01:58;99574.94;;;10.80;91.25
39891;BME280;25564;53.312;9.790;2023-03-23T00:04:29;99610.50;;;10.99;91.38
39891;BME280;25564;53.312;9.790;2023-03-23T00:06:59;99619.84;;;11.09;91.19
39891;BME280;25564;53.312;9.790;2023-03-23T00:09:33;99547.56;;;10.55;91.60
39891;BME280;25564;53.312;9.790;2023-03-23T00:12:05;99611.63;;;10.92;92.21
39891;BME280;25564;53.312;9.790;2023-03-23T00:14:35;99619.72;;;10.89;92.52
39891;BME280;25564;53.312;9.790;2023-03-23T00:17:11;99617.94;;;10.90;92.98
39891;BME280;25564;53.312;9.790;2023-03-23T00:19:44;99529.63;;;10.38;93.33
39891;BME280;25564;53.312;9.790;2023-03-23T00:22:17;99605.09;;;10.77;94.12
39891;BME280;25564;53.312;9.790;2023-03-23T00:24:49;99624.31;;;10.84;94.64
39891;BME280;25564;53.312;9.790;2023-03-23T00:27:23;99598.97;;;10.75;95.09
39891;BME280;25564;53.312;9.790;2023-03-23T00:29:53;99569.66;;;10.55;95.62
39891;BME280;25564;53.312;9.790;2023-03-23T00:32:24;99568.56;;;10.61;95.85
39891;BME280;25564;53.312;9.790;2023-03-23T00:34:58;99597.19;;;10.76;96.01
39891;BME280;25564;53.312;9.790;2023-03-23T00:37:28;99511.34;;;10.30;96.07
39891;BME280;25564;53.312;9.790;2023-03-23T00:39:59;99503.50;;;10.27;96.47
39891;BME280;25564;53.312;9.790;2023-03-23T00:42:30;99596.00;;;10.85;97.17
39891;BME280;25564;53.312;9.790;2023-03-23T00:45:06;99559.34;;;10.71;97.31
39891;BME280;25564;53.312;9.790;2023-03-23T00:47:40;99450.53;;;10.26;97.17
39891;BME280;25564;53.312;9.790;2023-03-23T00:50:17;99550.25;;;10.78;97.62
39891;BME280;25564;53.312;9.790;2023-03-23T00:52:48;99524.59;;;10.54;97.95
39891;BME280;25564;53.312;9.790;2023-03-23T00:55:23;99547.22;;;10.64;98.08
39891;BME280;25564;53.312;9.790;2023-03-23T00:57:54;99524.72;;;10.51;98.77
39891;BME280;25564;53.312;9.790;2023-03-23T01:00:24;99539.25;;;10.64;98.54
39891;BME280;25564;53.312;9.790;2023-03-23T01:02:55;99482.75;;;10.38;98.35
39891;BME280;25564;53.312;9.790;2023-03-23T01:05:25;99520.69;;;10.64;99.29
39891;BME280;25564;53.312;9.790;2023-03-23T01:08:02;99525.78;;;10.70;99.55
39891;BME280;25564;53.312;9.790;2023-03-23T01:10:33;99512.25;;;10.53;99.74
39891;BME280;25564;53.312;9.790;2023-03-23T01:13:03;99434.06;;;10.16;100.00
39891;BME280;25564;53.312;9.790;2023-03-23T01:15:34;99522.66;;;10.59;99.88
39891;BME280;25564;53.312;9.790;2023-03-23T01:18:06;99500.63;;;10.57;100.00
39891;BME280;25564;53.312;9.790;2023-03-23T01:20:36;99499.63;;;10.59;100.00
39891;BME280;25564;53.312;9.790;2023-03-23T01:23:07;99501.19;;;10.65;100.00
39891;BME280;25564;53.312;9.790;2023-03-23T01:25:38;99444.81;;;10.36;100.00
39891;BME280;25564;53.312;9.790;2023-03-23T01:28:09;99509.75;;;10.73;100.00
39891;BME280;25564;53.312;9.790;2023-03-23T01:30:40;99494.91;;;10.67;100.00
39891;BME280;25564;53.312;9.790;2023-03-23T01:33:11;99489.72;;;10.64;100.00
39891;BME280;25564;53.312;9.790;2023-03-23T01:35:41;99477.50;;;10.60;100.00
39891;BME280;25564;53.312;9.790;2023-03-23T01:38:11;99491.97;;;10.75;100.00
39891;BME280;25564;53.312;9.790;2023-03-23T01:40:43;99466.72;;;10.65;100.00
39891;BME280;25564;53.312;9.790;2023-03-23T01:43:15;99477.97;;;10.71;100.00
39891;BME280;25564;53.312;9.790;2023-03-23T01:45:45;99436.38;;;10.48;100.00
39891;BME280;25564;53.312;9.790;2023-03-23T01:48:20;99401.59;;;10.34;100.00
39891;BME280;25564;53.312;9.790;2023-03-23T01:50:56;99429.00;;;10.57;100.00
39891;BME280;25564;53.312;9.790;2023-03-23T01:53:31;99472.25;;;10.82;100.00
39891;BME280;25564;53.312;9.790;2023-03-23T01:56:06;99432.56;;;10.56;100.00
39891;BME280;25564;53.312;9.790;2023-03-23T01:58:38;99431.66;;;10.57;100.00
39891;BME280;25564;53.312;9.790;2023-03-23T02:01:10;99475.81;;;10.81;100.00
39891;BME280;25564;53.312;9.790;2023-03-23T02:03:44;99464.56;;;10.74;100.00
39891;BME280;25564;53.312;9.790;2023-03-23T02:06:15;99418.63;;;10.51;100.00
39891;BME280;25564;53.312;9.790;2023-03-23T02:08:48;99467.69;;;10.86;100.00
39891;BME280;25564;53.312;9.790;2023-03-23T02:11:21;99472.19;;;10.84;100.00
39891;BME280;25564;53.312;9.790;2023-03-23T02:13:53;99406.97;;;10.55;100.00
39891;BME280;25564;53.312;9.790;2023-03-23T02:16:55;99478.00;;;10.93;100.00
39891;BME280;25564;53.312;9.790;2023-03-23T02:28:22;99462.88;;;10.95;100.00
39891;BME280;25564;53.312;9.790;2023-03-23T02:34:13;99396.00;;;10.64;100.00
39891;BME280;25564;53.312;9.790;2023-03-23T02:36:58;99445.22;;;10.94;100.00
39891;BME280;25564;53.312;9.790;2023-03-23T02:39:34;99418.53;;;10.75;100.00
39891;BME280;25564;53.312;9.790;2023-03-23T02:42:09;99382.84;;;10.61;100.00
39891;BME280;25564;53.312;9.790;2023-03-23T02:44:43;99426.09;;;10.86;100.00
39891;BME280;25564;53.312;9.790;2023-03-23T02:47:18;99409.53;;;10.79;100.00
39891;BME280;25564;53.312;9.790;2023-03-23T02:49:52;99341.00;;;10.45;100.00
39891;BME280;25564;53.312;9.790;2023-03-23T02:52:26;99415.47;;;10.86;100.00
39891;BME280;25564;53.312;9.790;2023-03-23T02:54:58;99405.91;;;10.82;100.00
39891;BME280;25564;53.312;9.790;2023-03-23T02:57:30;99401.41;;;10.84;100.00
39891;BME280;25564;53.312;9.790;2023-03-23T03:00:01;99424.00;;;10.94;100.00
39891;BME280;25564;53.312;9.790;2023-03-23T03:02:35;99424.84;;;10.95;100.00
39891;BME280;25564;53.312;9.790;2023-03-23T03:08:13;99402.38;;;10.81;100.00
39891;BME280;25564;53.312;9.790;2023-03-23T03:10:54;99395.97;;;10.87;100.00
39891;BME280;25564;53.312;9.790;2023-03-23T03:16:20;99400.22;;;10.91;100.00
39891;BME280;25564;53.312;9.790;2023-03-23T03:21:30;99369.19;;;10.93;100.00
39891;BME280;25564;53.312;9.790;2023-03-23T03:24:04;99349.44;;;10.78;100.00
39891;BME280;25564;53.312;9.790;2023-03-23T03:26:42;99283.06;;;10.36;100.00
39891;BME280;25564;53.312;9.790;2023-03-23T03:29:23;99341.53;;;10.55;100.00
39891;BME280;25564;53.312;9.790;2023-03-23T03:31:56;99371.59;;;10.77;100.00
39891;BME280;25564;53.312;9.790;2023-03-23T03:34:28;99366.22;;;10.79;100.00
39891;BME280;25564;53.312;9.790;2023-03-23T03:37:03;99347.25;;;10.66;100.00
39891;BME280;25564;53.312;9.790;2023-03-23T03:39:35;99337.75;;;10.61;100.00
39891;BME280;25564;53.312;9.790;2023-03-23T03:42:07;99345.59;;;10.64;100.00
39891;BME280;25564;53.312;9.790;2023-03-23T03:44:37;99345.41;;;10.68;100.00
39891;BME280;25564;53.312;9.790;2023-03-23T03:47:07;99342.50;;;10.74;100.00
39891;BME280;25564;53.312;9.790;2023-03-23T03:49:38;99330.59;;;10.63;100.00
39891;BME280;25564;53.312;9.790;2023-03-23T03:52:08;99300.88;;;10.55;100.00
39891;BME280;25564;53.312;9.790;2023-03-23T03:54:40;99342.47;;;10.76;100.00
39891;BME280;25564;53.312;9.790;2023-03-23T03:57:11;99284.28;;;10.49;100.00
39891;BME280;25564;53.312;9.790;2023-03-23T03:59:41;99295.63;;;10.53;100.00
39891;BME280;25564;53.312;9.790;2023-03-23T04:02:12;99315.84;;;10.77;100.00
39891;BME280;25564;53.312;9.790;2023-03-23T04:04:49;99264.66;;;10.54;100.00
39891;BME280;25564;53.312;9.790;2023-03-23T04:07:19;99324.69;;;10.78;100.00
39891;BME280;25564;53.312;9.790;2023-03-23T04:09:51;99319.94;;;10.86;100.00
39891;BME280;25564;53.312;9.790;2023-03-23T04:12:22;99275.03;;;10.60;100.00
39891;BME280;25564;53.312;9.790;2023-03-23T04:14:52;99321.91;;;10.81;100.00
39891;BME280;25564;53.312;9.790;2023-03-23T04:17:22;99296.97;;;10.63;100.00
39891;BME280;25564;53.312;9.790;2023-03-23T04:19:56;99340.16;;;10.89;100.00
39891;BME280;25564;53.312;9.790;2023-03-23T04:22:27;99259.72;;;10.44;100.00
39891;BME280;25564;53.312;9.790;2023-03-23T04:25:01;99258.81;;;10.45;100.00
39891;BME280;25564;53.312;9.790;2023-03-23T04:27:34;99274.03;;;10.40;100.00
39891;BME280;25564;53.312;9.790;2023-03-23T04:30:05;99355.03;;;10.93;100.00
39891;BME280;25564;53.312;9.790;2023-03-23T04:32:36;99327.53;;;10.73;100.00
39891;BME280;25564;53.312;9.790;2023-03-23T04:35:13;99359.84;;;10.83;100.00
39891;BME280;25564;53.312;9.790;2023-03-23T04:37:44;99295.63;;;10.53;100.00
39891;BME280;25564;53.312;9.790;2023-03-23T04:40:16;99311.91;;;10.66;100.00
39891;BME280;25564;53.312;9.790;2023-03-23T04:42:47;99359.69;;;10.88;100.00
39891;BME280;25564;53.312;9.790;2023-03-23T04:45:20;99294.88;;;10.49;100.00
39891;BME280;25564;53.312;9.790;2023-03-23T04:47:52;99340.03;;;10.70;100.00
39891;BME280;25564;53.312;9.790;2023-03-23T04:50:27;99315.00;;;10.55;100.00
39891;BME280;25564;53.312;9.790;2023-03-23T04:52:59;99338.19;;;10.72;100.00
39891;BME280;25564;53.312;9.790;2023-03-23T04:55:35;99278.69;;;10.35;100.00
39891;BME280;25564;53.312;9.790;2023-03-23T04:58:08;99333.31;;;10.61;100.00
39891;BME280;25564;53.312;9.790;2023-03-23T05:00:38;99321.03;;;10.59;100.00
39891;BME280;25564;53.312;9.790;2023-03-23T05:03:12;99317.59;;;10.57;100.00
39891;BME280;25564;53.312;9.790;2023-03-23T05:05:47;99331.66;;;10.59;100.00
39891;BME280;25564;53.312;9.790;2023-03-23T05:08:23;99286.53;;;10.38;100.00
39891;BME280;25564;53.312;9.790;2023-03-23T05:10:56;99340.03;;;10.70;100.00
39891;BME280;25564;53.312;9.790;2023-03-23T05:13:28;99306.22;;;10.53;100.00
39891;BME280;25564;53.312;9.790;2023-03-23T05:16:03;99317.34;;;10.63;100.00
39891;BME280;25564;53.312;9.790;2023-03-23T05:18:33;99295.00;;;10.46;100.00
39891;BME280;25564;53.312;9.790;2023-03-23T05:21:04;99326.03;;;10.66;100.00
39891;BME280;25564;53.312;9.790;2023-03-23T05:23:34;99327.94;;;10.63;100.00
39891;BME280;25564;53.312;9.790;2023-03-23T05:26:05;99255.53;;;10.17;100.00
39891;BME280;25564;53.312;9.790;2023-03-23T05:28:37;99343.75;;;10.66;100.00
39891;BME280;25564;53.312;9.790;2023-03-23T05:31:07;99347.19;;;10.68;100.00
39891;BME280;25564;53.312;9.790;2023-03-23T05:33:37;99334.44;;;10.56;100.00
39891;BME280;25564;53.312;9.790;2023-03-23T05:36:08;99341.28;;;10.61;100.00
39891;BME280;25564;53.312;9.790;2023-03-23T05:38:43;99332.56;;;10.58;100.00
39891;BME280;25564;53.312;9.790;2023-03-23T05:41:15;99334.25;;;10.60;100.00
39891;BME280;25564;53.312;9.790;2023-03-23T05:43:45;99301.50;;;10.39;100.00
39891;BME280;25564;53.312;9.790;2023-03-23T05:46:16;99279.78;;;10.30;100.00
39891;BME280;25564;53.312;9.790;2023-03-23T05:48:46;99338.56;;;10.63;100.00
39891;BME280;25564;53.312;9.790;2023-03-23T05:51:16;99331.34;;;10.66;100.00
39891;BME280;25564;53.312;9.790;2023-03-23T05:53:47;99295.13;;;10.43;100.00
39891;BME280;25564;53.312;9.790;2023-03-23T05:56:18;99356.53;;;10.78;100.00
39891;BME280;25564;53.312;9.790;2023-03-23T05:58:48;99343.38;;;10.75;100.00
39891;BME280;25564;53.312;9.790;2023-03-23T06:01:18;99300.13;;;10.51;100.00
39891;BME280;25564;53.312;9.790;2023-03-23T06:03:49;99350.97;;;10.84;100.00
39891;BME280;25564;53.312;9.790;2023-03-23T06:06:21;99329.25;;;10.74;100.00
39891;BME280;25564;53.312;9.790;2023-03-23T06:08:51;99347.75;;;10.76;100.00
39891;BME280;25564;53.312;9.790;2023-03-23T06:11:22;99326.97;;;10.65;100.00
39891;BME280;25564;53.312;9.790;2023-03-23T06:13:53;99256.31;;;10.19;100.00
39891;BME280;25564;53.312;9.790;2023-03-23T06:16:24;99338.13;;;10.73;100.00
39891;BME280;25564;53.312;9.790;2023-03-23T06:18:55;99284.16;;;10.53;100.00
39891;BME280;25564;53.312;9.790;2023-03-23T06:21:26;99310.06;;;10.68;100.00
39891;BME280;25564;53.312;9.790;2023-03-23T06:23:57;99270.75;;;10.56;100.00
39891;BME280;25564;53.312;9.790;2023-03-23T06:26:34;99269.72;;;10.60;100.00
39891;BME280;25564;53.312;9.790;2023-03-23T06:29:05;99304.44;;;10.75;100.00
39891;BME280;25564;53.312;9.790;2023-03-23T06:31:48;99307.84;;;10.79;100.00
39891;BME280;25564;53.312;9.790;2023-03-23T06:34:21;99340.84;;;10.94;100.00
39891;BME280;25564;53.312;9.790;2023-03-23T06:36:51;99318.25;;;10.84;100.00
39891;BME280;25564;53.312;9.790;2023-03-23T06:39:22;99382.38;;;11.17;100.00
39891;BME280;25564;53.312;9.790;2023-03-23T06:41:56;99365.78;;;11.11;100.00
39891;BME280;25564;53.312;9.790;2023-03-23T06:44:27;99353.44;;;11.10;100.00
39891;BME280;25564;53.312;9.790;2023-03-23T06:46:57;99345.75;;;11.25;100.00
39891;BME280;25564;53.312;9.790;2023-03-23T06:49:27;99348.16;;;11.31;100.00
39891;BME280;25564;53.312;9.790;2023-03-23T06:51:58;99346.28;;;11.33;100.00
39891;BME280;25564;53.312;9.790;2023-03-23T06:54:30;99346.66;;;11.44;100.00
39891;BME280;25564;53.312;9.790;2023-03-23T06:57:00;99347.66;;;11.62;100.00
39891;BME280;25564;53.312;9.790;2023-03-23T06:59:31;99363.06;;;11.74;100.00
39891;BME280;25564;53.312;9.790;2023-03-23T07:02:01;99271.00;;;11.34;100.00
39891;BME280;25564;53.312;9.790;2023-03-23T07:04:32;99355.69;;;12.01;100.00
39891;BME280;25564;53.312;9.790;2023-03-23T07:07:03;99345.50;;;12.10;100.00
39891;BME280;25564;53.312;9.790;2023-03-23T07:09:33;99269.19;;;11.73;100.00
39891;BME280;25564;53.312;9.790;2023-03-23T07:12:03;99292.03;;;11.98;100.00
39891;BME280;25564;53.312;9.790;2023-03-23T07:14:35;99349.75;;;12.52;100.00
39891;BME280;25564;53.312;9.790;2023-03-23T07:17:06;99351.81;;;12.64;100.00
39891;BME280;25564;53.312;9.790;2023-03-23T07:19:37;99358.44;;;12.74;100.00
39891;BME280;25564;53.312;9.790;2023-03-23T07:22:08;99358.34;;;12.76;100.00
39891;BME280;25564;53.312;9.790;2023-03-23T07:24:38;99363.94;;;12.89;100.00
39891;BME280;25564;53.312;9.790;2023-03-23T07:27:08;99335.97;;;12.80;100.00
39891;BME280;25564;53.312;9.790;2023-03-23T07:29:39;99325.16;;;12.83;100.00
39891;BME280;25564;53.312;9.790;2023-03-23T07:32:11;99365.41;;;13.13;100.00
39891;BME280;25564;53.312;9.790;2023-03-23T07:34:42;99365.06;;;13.02;100.00
39891;BME280;25564;53.312;9.790;2023-03-23T07:37:12;99313.47;;;12.68;100.00
39891;BME280;25564;53.312;9.790;2023-03-23T07:39:42;99326.03;;;12.84;100.00
39891;BME280;25564;53.312;9.790;2023-03-23T07:42:13;99367.66;;;13.03;100.00
39891;BME280;25564;53.312;9.790;2023-03-23T07:44:43;99367.13;;;13.33;100.00
39891;BME280;25564;53.312;9.790;2023-03-23T07:47:14;99379.25;;;13.56;100.00
39891;BME280;25564;53.312;9.790;2023-03-23T07:49:44;99346.94;;;13.62;100.00
39891;BME280;25564;53.312;9.790;2023-03-23T07:52:14;99354.84;;;13.81;100.00
39891;BME280;25564;53.312;9.790;2023-03-23T07:54:45;99272.28;;;13.46;100.00
39891;BME280;25564;53.312;9.790;2023-03-23T07:57:15;99328.25;;;13.79;100.00
39891;BME280;25564;53.312;9.790;2023-03-23T07:59:46;99370.66;;;14.01;100.00
39891;BME280;25564;53.312;9.790;2023-03-23T08:02:16;99309.94;;;13.56;100.00
39891;BME280;25564;53.312;9.790;2023-03-23T08:04:47;99366.63;;;14.10;100.00
39891;BME280;25564;53.312;9.790;2023-03-23T08:07:17;99310.91;;;13.88;100.00
39891;BME280;25564;53.312;9.790;2023-03-23T08:09:49;99385.38;;;14.41;100.00
39891;BME280;25564;53.312;9.790;2023-03-23T08:12:19;99381.56;;;14.47;100.00
39891;BME280;25564;53.312;9.790;2023-03-23T08:14:49;99324.03;;;14.08;100.00
39891;BME280;25564;53.312;9.790;2023-03-23T08:17:21;99360.69;;;14.04;100.00
39891;BME280;25564;53.312;9.790;2023-03-23T08:19:52;99365.19;;;13.87;100.00
39891;BME280;25564;53.312;9.790;2023-03-23T08:22:22;99412.94;;;13.91;100.00
39891;BME280;25564;53.312;9.790;2023-03-23T08:24:52;99424.19;;;13.81;100.00
39891;BME280;25564;53.312;9.790;2023-03-23T08:27:23;99428.25;;;13.36;100.00
39891;BME280;25564;53.312;9.790;2023-03-23T08:29:53;99450.78;;;13.10;99.69
39891;BME280;25564;53.312;9.790;2023-03-23T08:32:24;99449.69;;;12.20;98.17
39891;BME280;25564;53.312;9.790;2023-03-23T08:34:54;99434.47;;;11.61;99.13
39891;BME280;25564;53.312;9.790;2023-03-23T08:37:24;99354.53;;;11.05;100.00
39891;BME280;25564;53.312;9.790;2023-03-23T08:39:55;99437.78;;;11.46;100.00
39891;BME280;25564;53.312;9.790;2023-03-23T08:42:27;99455.00;;;11.58;100.00
39891;BME280;25564;53.312;9.790;2023-03-23T08:44:57;99442.09;;;11.48;100.00
39891;BME280;25564;53.312;9.790;2023-03-23T08:47:27;99451.88;;;11.48;100.00
39891;BME280;25564;53.312;9.790;2023-03-23T08:49:58;99472.25;;;11.47;100.00
39891;BME280;25564;53.312;9.790;2023-03-23T08:52:28;99378.63;;;11.00;100.00
39891;BME280;25564;53.312;9.790;2023-03-23T08:54:59;99467.47;;;11.35;100.00
39891;BME280;25564;53.312;9.790;2023-03-23T08:57:29;99402.25;;;10.85;100.00
39891;BME280;25564;53.312;9.790;2023-03-23T09:00:00;99455.75;;;11.19;100.00
39891;BME280;25564;53.312;9.790;2023-03-23T09:02:38;99462.97;;;11.16;100.00
39891;BME280;25564;53.312;9.790;2023-03-23T09:05:10;99473.22;;;11.25;100.00
39891;BME280;25564;53.312;9.790;2023-03-23T09:07:43;99392.25;;;10.91;100.00
39891;BME280;25564;53.312;9.790;2023-03-23T09:10:14;99492.00;;;11.62;100.00
39891;BME280;25564;53.312;9.790;2023-03-23T09:12:46;99396.53;;;11.17;100.00
39891;BME280;25564;53.312;9.790;2023-03-23T09:15:17;99491.75;;;11.90;100.00
39891;BME280;25564;53.312;9.790;2023-03-23T09:17:51;99464.97;;;11.95;100.00
39891;BME280;25564;53.312;9.790;2023-03-23T09:20:24;99436.25;;;11.83;100.00
39891;BME280;25564;53.312;9.790;2023-03-23T09:22:56;99482.91;;;12.10;100.00
39891;BME280;25564;53.312;9.790;2023-03-23T09:25:27;99395.81;;;11.74;100.00
39891;BME280;25564;53.312;9.790;2023-03-23T09:27:58;99392.72;;;11.85;100.00
39891;BME280;25564;53.312;9.790;2023-03-23T09:30:31;99440.63;;;12.24;100.00
39891;BME280;25564;53.312;9.790;2023-03-23T09:33:03;99480.84;;;12.56;100.00
39891;BME280;25564;53.312;9.790;2023-03-23T09:35:36;99389.19;;;12.05;100.00
39891;BME280;25564;53.312;9.790;2023-03-23T09:38:09;99491.22;;;12.62;100.00
39891;BME280;25564;53.312;9.790;2023-03-23T09:48:51;99513.63;;;13.52;100.00
39891;BME280;25564;53.312;9.790;2023-03-23T09:51:36;99517.84;;;13.56;100.00
39891;BME280;25564;53.312;9.790;2023-03-23T09:54:20;99456.28;;;13.26;100.00
39891;BME280;25564;53.312;9.790;2023-03-23T09:56:52;99430.16;;;12.96;100.00
39891;BME280;25564;53.312;9.790;2023-03-23T09:59:46;99519.19;;;13.47;100.00
39891;BME280;25564;53.312;9.790;2023-03-23T10:02:22;99488.59;;;13.37;100.00
39891;BME280;25564;53.312;9.790;2023-03-23T10:04:56;99490.63;;;13.32;100.00
39891;BME280;25564;53.312;9.790;2023-03-23T10:07:29;99515.31;;;13.35;100.00
39891;BME280;25564;53.312;9.790;2023-03-23T10:10:01;99528.34;;;13.41;100.00
39891;BME280;25564;53.312;9.790;2023-03-23T10:12:48;99444.47;;;13.13;100.00
39891;BME280;25564;53.312;9.790;2023-03-23T10:15:25;99488.94;;;13.48;100.00
39891;BME280;25564;53.312;9.790;2023-03-23T10:18:02;99481.41;;;13.56;100.00
39891;BME280;25564;53.312;9.790;2023-03-23T10:20:35;99543.72;;;13.90;100.00
39891;BME280;25564;53.312;9.790;2023-03-23T10:25:59;99537.31;;;14.11;100.00
39891;BME280;25564;53.312;9.790;2023-03-23T10:28:52;99528.97;;;14.17;100.00
39891;BME280;25564;53.312;9.790;2023-03-23T10:31:31;99545.41;;;14.44;100.00
39891;BME280;25564;53.312;9.790;2023-03-23T10:34:12;99531.81;;;14.49;100.00
39891;BME280;25564;53.312;9.790;2023-03-23T10:37:01;99464.41;;;13.93;100.00
39891;BME280;25564;53.312;9.790;2023-03-23T10:39:49;99542.16;;;14.37;100.00
39891;BME280;25564;53.312;9.790;2023-03-23T10:42:25;99484.72;;;14.13;100.00
39891;BME280;25564;53.312;9.790;2023-03-23T10:44:59;99538.44;;;14.42;100.00
39891;BME280;25564;53.312;9.790;2023-03-23T10:47:29;99562.75;;;14.53;100.00
39891;BME280;25564;53.312;9.790;2023-03-23T10:50:03;99561.63;;;14.57;100.00
39891;BME280;25564;53.312;9.790;2023-03-23T10:52:40;99581.28;;;14.56;100.00
39891;BME280;25564;53.312;9.790;2023-03-23T10:55:17;99552.94;;;14.53;100.00
39891;BME280;25564;53.312;9.790;2023-03-23T10:58:02;99524.25;;;14.39;100.00
39891;BME280;25564;53.312;9.790;2023-03-23T11:00:40;99492.63;;;14.32;100.00
39891;BME280;25564;53.312;9.790;2023-03-23T11:05:50;99570.19;;;14.96;100.00
39891;BME280;25564;53.312;9.790;2023-03-23T11:08:24;99522.19;;;14.62;100.00
39891;BME280;25564;53.312;9.790;2023-03-23T11:10:57;99570.84;;;14.84;100.00
39891;BME280;25564;53.312;9.790;2023-03-23T11:13:30;99551.00;;;14.72;100.00
39891;BME280;25564;53.312;9.790;2023-03-23T11:16:01;99544.47;;;14.78;100.00
39891;BME280;25564;53.312;9.790;2023-03-23T11:18:40;99507.41;;;14.72;100.00
39891;BME280;25564;53.312;9.790;2023-03-23T11:21:13;99499.59;;;14.85;100.00
39891;BME280;25564;53.312;9.790;2023-03-23T11:23:49;99548.94;;;15.11;99.78
39891;BME280;25564;53.312;9.790;2023-03-23T11:26:33;99578.66;;;15.04;99.50
39891;BME280;25564;53.312;9.790;2023-03-23T11:29:15;99546.84;;;14.67;100.00
39891;BME280;25564;53.312;9.790;2023-03-23T11:31:49;99586.88;;;14.84;100.00
39891;BME280;25564;53.312;9.790;2023-03-23T11:34:31;99570.84;;;14.84;100.00
39891;BME280;25564;53.312;9.790;2023-03-23T11:37:11;99489.81;;;14.68;100.00
39891;BME280;25564;53.312;9.790;2023-03-23T11:42:49;99544.97;;;14.69;99.50
39891;BME280;25564;53.312;9.790;2023-03-23T11:45:38;99507.94;;;14.28;99.53
39891;BME280;25564;53.312;9.790;2023-03-23T11:51:26;99595.59;;;14.55;99.78
39891;BME280;25564;53.312;9.790;2023-03-23T11:55:07;99586.41;;;14.43;99.75
39891;BME280;25564;53.312;9.790;2023-03-23T11:57:10;99582.97;;;14.57;100.00
39891;BME280;25564;53.312;9.790;2023-03-23T11:59:41;99601.66;;;14.74;99.96
39891;BME280;25564;53.312;9.790;2023-03-23T12:04:57;99599.78;;;14.59;99.10
39891;BME280;25564;53.312;9.790;2023-03-23T12:10:47;99590.22;;;14.37;99.06
39891;BME280;25564;53.312;9.790;2023-03-23T12:13:54;99581.81;;;14.28;98.95
39891;BME280;25564;53.312;9.790;2023-03-23T12:16:35;99571.19;;;14.09;99.11
39891;BME280;25564;53.312;9.790;2023-03-23T12:21:52;99594.38;;;14.26;99.39
39891;BME280;25564;53.312;9.790;2023-03-23T12:24:46;99566.97;;;14.22;98.89
39891;BME280;25564;53.312;9.790;2023-03-23T12:27:38;99509.66;;;13.95;98.71
39891;BME280;25564;53.312;9.790;2023-03-23T12:30:15;99582.97;;;14.57;98.88
39891;BME280;25564;53.312;9.790;2023-03-23T12:33:11;99545.53;;;14.58;98.62
39891;BME280;25564;53.312;9.790;2023-03-23T12:39:15;99587.81;;;15.16;98.41
39891;BME280;25564;53.312;9.790;2023-03-23T12:42:43;99576.81;;;15.38;98.63
39891;BME280;25564;53.312;9.790;2023-03-23T12:44:58;99556.31;;;15.54;98.19
39891;BME280;25564;53.312;9.790;2023-03-23T12:47:43;99530.25;;;15.42;97.53
39891;BME280;25564;53.312;9.790;2023-03-23T12:50:30;99560.56;;;15.58;97.56
39891;BME280;25564;53.312;9.790;2023-03-23T12:53:09;99549.03;;;15.72;97.69
39891;BME280;25564;53.312;9.790;2023-03-23T12:56:04;99529.88;;;15.80;97.07
39891;BME280;25564;53.312;9.790;2023-03-23T12:58:44;99543.47;;;16.07;97.14
39891;BME280;25564;53.312;9.790;2023-03-23T13:01:20;99530.00;;;16.08;96.43
39891;BME280;25564;53.312;9.790;2023-03-23T13:04:01;99575.97;;;16.30;96.47
39891;BME280;25564;53.312;9.790;2023-03-23T13:06:35;99563.25;;;16.34;96.70
39891;BME280;25564;53.312;9.790;2023-03-23T13:09:30;99559.34;;;16.40;95.67
39891;BME280;25564;53.312;9.790;2023-03-23T13:12:04;99501.06;;;15.85;96.23
39891;BME280;25564;53.312;9.790;2023-03-23T13:14:47;99515.88;;;15.90;96.00
39891;BME280;25564;53.312;9.790;2023-03-23T13:20:01;99569.69;;;16.16;95.77
39891;BME280;25564;53.312;9.790;2023-03-23T13:22:50;99532.81;;;15.75;96.78
39891;BME280;25564;53.312;9.790;2023-03-23T13:28:04;99563.53;;;15.84;96.56
39891;BME280;25564;53.312;9.790;2023-03-23T13:30:35;99561.25;;;16.08;95.95
39891;BME280;25564;53.312;9.790;2023-03-23T13:33:10;99516.69;;;16.07;95.12
39891;BME280;25564;53.312;9.790;2023-03-23T13:35:41;99501.19;;;15.97;94.80
39891;BME280;25564;53.312;9.790;2023-03-23T13:38:19;99575.06;;;16.46;94.06
39891;BME280;25564;53.312;9.790;2023-03-23T13:40:51;99568.00;;;16.59;94.28
39891;BME280;25564;53.312;9.790;2023-03-23T13:43:34;99552.97;;;16.56;93.51
39891;BME280;25564;53.312;9.790;2023-03-23T13:49:02;99534.47;;;16.38;93.06
39891;BME280;25564;53.312;9.790;2023-03-23T13:51:46;99560.06;;;16.57;93.03
39891;BME280;25564;53.312;9.790;2023-03-23T13:54:23;99554.97;;;16.53;92.80
39891;BME280;25564;53.312;9.790;2023-03-23T13:57:00;99479.88;;;15.96;92.52
39891;BME280;25564;53.312;9.790;2023-03-23T13:59:47;99554.34;;;16.33;91.94
39891;BME280;25564;53.312;9.790;2023-03-23T14:02:37;99561.47;;;16.49;92.03
39891;BME280;25564;53.312;9.790;2023-03-23T14:08:42;99543.50;;;16.51;92.08
39891;BME280;25564;53.312;9.790;2023-03-23T14:16:24;99521.34;;;16.91;90.78
39891;BME280;25564;53.312;9.790;2023-03-23T14:18:59;99481.50;;;16.99;90.89
39891;BME280;25564;53.312;9.790;2023-03-23T14:21:39;99494.16;;;16.97;90.21
39891;BME280;25564;53.312;9.790;2023-03-23T14:24:17;99492.25;;;16.85;90.17
39891;BME280;25564;53.312;9.790;2023-03-23T14:26:48;99482.38;;;16.57;89.90
39891;BME280;25564;53.312;9.790;2023-03-23T14:29:22;99499.19;;;16.31;89.75
39891;BME280;25564;53.312;9.790;2023-03-23T14:31:56;99550.22;;;16.28;90.26
39891;BME280;25564;53.312;9.790;2023-03-23T14:34:29;99551.41;;;16.08;90.11
39891;BME280;25564;53.312;9.790;2023-03-23T14:37:01;99546.34;;;15.88;90.11
39891;BME280;25564;53.312;9.790;2023-03-23T14:39:33;99540.41;;;15.83;90.35